Time;durP1;ratioP1;P1;durP2;ratioP2;P2;SDS_P1;SDS_P2;PMS_P1;PMS_P2;Temp;Humidity;BMP_temperature;BMP_pressure;BME280_temperature;BME280_humidity;BME280_pressure;Samples;Min_cycle;Max_cycle;Signal;HPM_P1;HPM_P2
2022/09/04 00:00:27;;;;;;;;;;;19.00;80.40;;;;;;5073598;28;20420;-49
2022/09/04 00:03:00;;;;;;;;;;;19.10;80.60;;;;;;5073886;28;20295;-46
2022/09/04 00:05:35;;;;;;;;;;;19.00;80.60;;;;;;5073433;28;20376;-46
2022/09/04 00:08:22;;;;;;;;;;;19.00;80.60;;;;;;5073475;28;19917;-47
2022/09/04 00:11:12;;;;;;;;;;;19.00;80.60;;;;;;5073752;28;19924;-50
2022/09/04 00:13:43;;;;;;;;;;;18.90;80.70;;;;;;5073256;28;20045;-47
2022/09/04 00:16:12;;;;;;;;;;;18.80;81.00;;;;;;5072970;28;19981;-47
2022/09/04 00:18:38;;;;;;;;;;;18.80;81.10;;;;;;5073031;28;19931;-49
2022/09/04 00:21:07;;;;;;;;;;;18.70;81.00;;;;;;5071890;28;19916;-49
2022/09/04 00:23:41;;;;;;;;;;;18.70;81.10;;;;;;5072382;28;19916;-48
2022/09/04 00:26:30;;;;;;;;;;;18.70;81.30;;;;;;5072390;28;19965;-48
2022/09/04 00:28:59;;;;;;;;;;;18.60;81.50;;;;;;5063575;28;19916;-46
2022/09/04 00:31:28;;;;;;;;;;;18.50;81.50;;;;;;5071486;28;20006;-48
2022/09/04 00:34:14;;;;;;;;;;;18.50;81.60;;;;;;5072602;28;19936;-47
2022/09/04 00:36:42;;;;;;;;;;;18.40;81.70;;;;;;5072009;28;19922;-46
2022/09/04 00:39:10;;;;;;;;;;;18.30;82.30;;;;;;5071893;28;19916;-47
2022/09/04 00:41:44;;;;;;;;;;;18.30;81.80;;;;;;5073049;28;19920;-49
2022/09/04 00:44:24;;;;;;;;;;;18.30;82.00;;;;;;5072974;28;19917;-47
2022/09/04 00:46:50;;;;;;;;;;;18.30;82.10;;;;;;5072413;28;19920;-48
2022/09/04 00:49:16;;;;;;;;;;;18.20;82.00;;;;;;5071289;28;19943;-49
2022/09/04 00:51:57;;;;;;;;;;;18.20;82.20;;;;;;5071758;28;19917;-50
2022/09/04 00:54:41;;;;;;;;;;;18.10;82.50;;;;;;5070978;28;19927;-50
2022/09/04 00:57:33;;;;;;;;;;;18.10;82.40;;;;;;5071027;28;19917;-48
2022/09/04 01:00:08;;;;;;;;;;;18.00;82.40;;;;;;5055158;28;20386;-50
2022/09/04 01:02:34;;;;;;;;;;;18.00;82.50;;;;;;5070856;28;19939;-47
2022/09/04 01:05:11;;;;;;;;;;;18.00;82.70;;;;;;5070129;28;19920;-48
2022/09/04 01:07:56;;;;;;;;;;;18.00;82.60;;;;;;5070984;28;19939;-48
2022/09/04 01:10:37;;;;;;;;;;;17.90;83.00;;;;;;5071302;28;19923;-50
2022/09/04 01:13:07;;;;;;;;;;;17.90;82.90;;;;;;5069789;28;19931;-46
2022/09/04 01:15:37;;;;;;;;;;;17.80;83.10;;;;;;5070788;28;20027;-51
2022/09/04 01:18:09;;;;;;;;;;;17.80;83.20;;;;;;5070522;28;19924;-50
2022/09/04 01:20:34;;;;;;;;;;;17.80;83.30;;;;;;5071386;28;19916;-46
2022/09/04 01:23:18;;;;;;;;;;;17.70;83.50;;;;;;5069140;28;19920;-47
2022/09/04 01:25:51;;;;;;;;;;;17.70;83.60;;;;;;5069628;28;19916;-46
2022/09/04 01:28:20;;;;;;;;;;;17.70;83.80;;;;;;5069125;28;19916;-46
2022/09/04 01:30:54;;;;;;;;;;;17.70;83.90;;;;;;5071060;28;20010;-47
2022/09/04 01:33:26;;;;;;;;;;;17.70;84.00;;;;;;5070734;28;19924;-46
2022/09/04 01:36:00;;;;;;;;;;;17.60;83.90;;;;;;5070807;28;19959;-47
2022/09/04 01:38:34;;;;;;;;;;;17.50;84.00;;;;;;5069150;28;19923;-49
2022/09/04 01:41:14;;;;;;;;;;;17.50;84.30;;;;;;5069591;28;19924;-49
2022/09/04 01:43:39;;;;;;;;;;;17.40;84.40;;;;;;5070467;28;19920;-47
2022/09/04 01:46:23;;;;;;;;;;;17.40;84.60;;;;;;5069524;28;19927;-48
2022/09/04 01:48:54;;;;;;;;;;;17.40;84.80;;;;;;5032542;28;1101312;-49
2022/09/04 01:51:26;;;;;;;;;;;17.30;84.90;;;;;;5071740;28;19938;-48
2022/09/04 01:54:05;;;;;;;;;;;17.30;85.10;;;;;;5069633;28;19924;-49
2022/09/04 01:56:39;;;;;;;;;;;17.20;85.30;;;;;;5071093;28;19959;-49
2022/09/04 01:59:13;;;;;;;;;;;17.20;85.30;;;;;;5071216;28;19916;-48
2022/09/04 02:02:00;;;;;;;;;;;17.20;85.50;;;;;;5071574;28;19975;-46
2022/09/04 02:04:46;;;;;;;;;;;17.10;85.60;;;;;;5069992;28;19923;-48
2022/09/04 02:07:22;;;;;;;;;;;17.10;85.70;;;;;;5071181;28;19916;-46
2022/09/04 02:10:05;;;;;;;;;;;17.10;86.00;;;;;;5069560;28;19920;-49
2022/09/04 02:12:51;;;;;;;;;;;17.10;86.00;;;;;;5071083;28;20411;-49
2022/09/04 02:15:52;;;;;;;;;;;17.00;86.30;;;;;;5070758;28;19989;-47
2022/09/04 02:18:31;;;;;;;;;;;17.00;86.40;;;;;;5028322;28;20408;-50
2022/09/04 02:21:15;;;;;;;;;;;16.90;86.50;;;;;;5065973;28;19917;-47
2022/09/04 02:23:51;;;;;;;;;;;17.00;86.90;;;;;;5070488;28;19928;-49
2022/09/04 02:26:22;;;;;;;;;;;16.90;87.60;;;;;;5070153;28;19916;-48
2022/09/04 02:29:06;;;;;;;;;;;16.80;87.30;;;;;;5070938;28;20019;-50
2022/09/04 02:31:37;;;;;;;;;;;16.90;87.40;;;;;;5070411;28;19916;-46
2022/09/04 02:34:09;;;;;;;;;;;16.90;87.50;;;;;;5070401;28;19967;-49
2022/09/04 02:36:40;;;;;;;;;;;16.80;87.30;;;;;;5070335;28;19916;-46
2022/09/04 02:39:15;;;;;;;;;;;16.70;87.10;;;;;;5052708;28;20416;-49
2022/09/04 02:41:49;;;;;;;;;;;16.70;87.20;;;;;;5070402;28;19917;-49
2022/09/04 02:44:15;;;;;;;;;;;16.70;87.70;;;;;;5070495;28;20363;-48
2022/09/04 02:46:52;;;;;;;;;;;16.60;87.70;;;;;;5070283;28;19926;-47
2022/09/04 02:49:23;;;;;;;;;;;16.60;87.90;;;;;;5069910;28;19928;-49
2022/09/04 02:51:52;;;;;;;;;;;16.50;88.00;;;;;;5070616;28;20333;-47
2022/09/04 02:54:36;;;;;;;;;;;16.50;88.20;;;;;;5069688;28;19925;-49
2022/09/04 02:57:16;;;;;;;;;;;16.50;88.30;;;;;;5069794;28;19939;-48
2022/09/04 03:00:03;;;;;;;;;;;16.40;88.60;;;;;;5070349;28;19920;-50
2022/09/04 03:02:31;;;;;;;;;;;16.40;88.70;;;;;;5069759;28;20417;-50
2022/09/04 03:05:00;;;;;;;;;;;16.40;88.90;;;;;;5068663;28;19927;-52
2022/09/04 03:07:33;;;;;;;;;;;16.30;89.00;;;;;;5069800;28;20326;-50
2022/09/04 03:10:27;;;;;;;;;;;16.30;89.30;;;;;;5070238;28;19959;-46
2022/09/04 03:13:02;;;;;;;;;;;16.30;89.40;;;;;;5069729;28;19917;-50
2022/09/04 03:15:53;;;;;;;;;;;16.30;89.50;;;;;;5070222;28;19931;-50
2022/09/04 03:18:22;;;;;;;;;;;16.20;89.60;;;;;;5069833;28;20379;-47
2022/09/04 03:20:48;;;;;;;;;;;16.20;89.60;;;;;;5068864;28;20390;-49
2022/09/04 03:23:19;;;;;;;;;;;16.10;89.80;;;;;;5069153;28;19916;-49
2022/09/04 03:25:51;;;;;;;;;;;16.10;90.00;;;;;;5069327;28;19947;-50
2022/09/04 03:28:24;;;;;;;;;;;16.10;90.10;;;;;;5069716;28;20002;-47
2022/09/04 03:30:51;;;;;;;;;;;16.10;90.10;;;;;;5070264;28;19928;-48
2022/09/04 03:33:22;;;;;;;;;;;16.10;90.10;;;;;;5069544;28;20402;-46
2022/09/04 03:35:58;;;;;;;;;;;16.10;90.20;;;;;;5068514;28;19924;-48
2022/09/04 03:38:24;;;;;;;;;;;16.00;90.30;;;;;;5069890;28;19927;-48
2022/09/04 03:41:08;;;;;;;;;;;16.00;90.40;;;;;;5069820;28;19920;-47
2022/09/04 03:43:33;;;;;;;;;;;16.00;90.40;;;;;;5069633;28;19969;-48
2022/09/04 03:46:05;;;;;;;;;;;15.90;90.50;;;;;;5069319;28;20247;-47
2022/09/04 03:48:42;;;;;;;;;;;15.90;90.60;;;;;;5069415;28;19920;-50
2022/09/04 03:51:15;;;;;;;;;;;15.90;90.60;;;;;;5068371;28;19920;-48
2022/09/04 03:54:00;;;;;;;;;;;15.90;90.80;;;;;;5069084;28;20014;-50
2022/09/04 03:56:44;;;;;;;;;;;15.90;90.90;;;;;;5069303;28;19990;-45
2022/09/04 03:59:17;;;;;;;;;;;15.90;90.90;;;;;;5069490;28;19921;-49
2022/09/04 04:01:45;;;;;;;;;;;15.90;90.90;;;;;;5069379;28;19946;-47
2022/09/04 04:04:34;;;;;;;;;;;15.80;90.90;;;;;;5069515;28;19938;-46
2022/09/04 04:07:13;;;;;;;;;;;15.80;91.10;;;;;;5062551;28;19923;-49
2022/09/04 04:09:58;;;;;;;;;;;15.70;91.10;;;;;;5068576;28;20306;-49
2022/09/04 04:12:38;;;;;;;;;;;15.70;91.20;;;;;;5069322;28;19916;-49
2022/09/04 04:15:03;;;;;;;;;;;15.70;91.20;;;;;;5069487;28;19929;-47
2022/09/04 04:17:49;;;;;;;;;;;15.70;91.30;;;;;;5069434;28;20390;-48
2022/09/04 04:20:14;;;;;;;;;;;16.30;91.40;;;;;;5047625;28;19916;-46
2022/09/04 04:22:40;;;;;;;;;;;15.70;91.40;;;;;;5069505;28;20019;-49
2022/09/04 04:25:12;;;;;;;;;;;15.60;91.50;;;;;;5068581;28;19916;-48
2022/09/04 04:27:52;;;;;;;;;;;15.60;91.60;;;;;;5069083;28;20020;-46
2022/09/04 04:30:18;;;;;;;;;;;15.60;91.70;;;;;;5069650;28;19924;-48
2022/09/04 04:32:49;;;;;;;;;;;15.60;91.70;;;;;;5069238;28;20336;-49
2022/09/04 04:35:15;;;;;;;;;;;15.50;91.90;;;;;;5069165;28;21460;-48
2022/09/04 04:38:05;;;;;;;;;;;15.50;92.00;;;;;;5069574;28;19916;-48
2022/09/04 04:40:47;;;;;;;;;;;15.50;91.90;;;;;;5070283;28;20012;-49
2022/09/04 04:43:16;;;;;;;;;;;15.50;92.00;;;;;;5072539;28;19931;-50
2022/09/04 04:45:50;;;;;;;;;;;15.50;92.00;;;;;;5072332;28;19920;-47
2022/09/04 04:48:35;;;;;;;;;;;15.50;92.20;;;;;;5072526;28;19924;-49
2022/09/04 04:51:10;;;;;;;;;;;15.40;92.20;;;;;;5072902;28;19986;-48
2022/09/04 04:53:35;;;;;;;;;;;15.50;92.20;;;;;;5071882;28;20016;-49
2022/09/04 04:56:19;;;;;;;;;;;15.50;92.20;;;;;;5072339;28;20010;-47
2022/09/04 04:58:54;;;;;;;;;;;15.50;92.30;;;;;;5072552;28;19916;-49
2022/09/04 05:01:30;;;;;;;;;;;15.50;92.30;;;;;;5072353;28;19928;-47
2022/09/04 05:03:55;;;;;;;;;;;15.50;92.40;;;;;;5071000;28;19963;-47
2022/09/04 05:06:35;;;;;;;;;;;15.40;92.40;;;;;;5072080;28;19963;-48
2022/09/04 05:09:06;;;;;;;;;;;15.40;92.50;;;;;;5072428;28;20407;-48
2022/09/04 05:11:35;;;;;;;;;;;15.40;92.60;;;;;;5072514;28;20371;-47
2022/09/04 05:14:09;;;;;;;;;;;15.40;92.60;;;;;;5072048;28;19927;-47
2022/09/04 05:16:46;;;;;;;;;;;15.40;92.70;;;;;;5071591;28;19920;-48
2022/09/04 05:19:27;;;;;;;;;;;15.30;92.70;;;;;;5072111;28;19939;-46
2022/09/04 05:22:01;;;;;;;;;;;15.40;93.10;;;;;;5072340;28;19920;-48
2022/09/04 05:24:36;;;;;;;;;;;15.30;92.80;;;;;;5071813;28;20398;-46
2022/09/04 05:27:01;;;;;;;;;;;15.40;92.90;;;;;;5071740;28;19916;-48
2022/09/04 05:29:46;;;;;;;;;;;15.40;92.80;;;;;;5072228;28;19916;-48
2022/09/04 05:32:27;;;;;;;;;;;15.40;92.80;;;;;;5071828;28;19928;-50
2022/09/04 05:35:16;;;;;;;;;;;15.40;92.90;;;;;;5069869;28;20295;-47
2022/09/04 05:37:47;;;;;;;;;;;15.40;92.80;;;;;;5065398;28;19920;-48
2022/09/04 05:40:18;;;;;;;;;;;15.30;92.90;;;;;;5071936;28;19920;-47
2022/09/04 05:42:53;;;;;;;;;;;15.40;93.00;;;;;;5072040;28;19920;-50
2022/09/04 05:45:24;;;;;;;;;;;15.30;92.90;;;;;;5069970;28;19943;-48
2022/09/04 05:47:57;;;;;;;;;;;15.40;92.90;;;;;;5070658;28;19920;-48
2022/09/04 05:50:35;;;;;;;;;;;15.40;93.00;;;;;;5070834;28;20162;-47
2022/09/04 05:53:09;;;;;;;;;;;15.50;93.10;;;;;;5071575;28;20367;-46
2022/09/04 05:55:53;;;;;;;;;;;15.40;92.90;;;;;;5071028;28;19928;-48
2022/09/04 05:58:38;;;;;;;;;;;15.50;93.20;;;;;;5071059;28;19921;-46
2022/09/04 06:01:03;;;;;;;;;;;15.50;93.10;;;;;;5071475;28;19970;-49
2022/09/04 06:03:55;;;;;;;;;;;15.50;93.20;;;;;;5069883;28;19974;-47
2022/09/04 06:06:27;;;;;;;;;;;15.50;93.30;;;;;;5054603;28;19974;-50
2022/09/04 06:09:12;;;;;;;;;;;15.60;93.30;;;;;;5071123;28;19916;-49
2022/09/04 06:12:04;;;;;;;;;;;15.60;93.40;;;;;;5069985;28;19965;-46
2022/09/04 06:14:36;;;;;;;;;;;15.70;93.50;;;;;;5068031;28;19921;-48
2022/09/04 06:17:12;;;;;;;;;;;15.70;93.50;;;;;;5070842;28;19956;-49
2022/09/04 06:19:47;;;;;;;;;;;15.70;93.60;;;;;;5071089;28;20351;-48
2022/09/04 06:22:19;;;;;;;;;;;15.70;93.70;;;;;;5069927;28;19920;-48
2022/09/04 06:24:45;;;;;;;;;;;15.70;93.80;;;;;;5069847;28;19917;-48
2022/09/04 06:27:10;;;;;;;;;;;15.70;94.00;;;;;;5069738;28;19916;-45
2022/09/04 06:29:54;;;;;;;;;;;15.80;94.00;;;;;;5070210;28;19927;-51
2022/09/04 06:32:49;;;;;;;;;;;15.80;94.00;;;;;;5070729;28;19923;-48
2022/09/04 06:35:14;;;;;;;;;;;15.90;94.00;;;;;;5060937;28;19935;-49
2022/09/04 06:37:43;;;;;;;;;;;16.00;93.90;;;;;;5070576;28;20022;-48
2022/09/04 06:40:20;;;;;;;;;;;16.10;94.10;;;;;;5070126;28;19925;-46
2022/09/04 06:43:04;;;;;;;;;;;16.10;94.00;;;;;;5070795;28;19920;-48
2022/09/04 06:45:36;;;;;;;;;;;16.20;94.00;;;;;;5068865;28;19922;-47
2022/09/04 06:48:22;;;;;;;;;;;16.30;93.80;;;;;;5069023;28;19967;-48
2022/09/04 06:50:57;;;;;;;;;;;16.30;94.00;;;;;;5069497;28;19923;-47
2022/09/04 06:53:25;;;;;;;;;;;16.40;94.00;;;;;;5069981;28;19924;-47
2022/09/04 06:55:54;;;;;;;;;;;16.50;94.00;;;;;;5070414;28;19916;-50
2022/09/04 06:58:19;;;;;;;;;;;16.60;94.00;;;;;;5070121;28;20412;-46
2022/09/04 07:00:52;;;;;;;;;;;16.60;93.80;;;;;;5069561;28;19916;-48
2022/09/04 07:03:36;;;;;;;;;;;16.70;94.00;;;;;;5070615;28;19947;-48
2022/09/04 07:06:15;;;;;;;;;;;16.80;94.10;;;;;;5070017;28;19920;-47
2022/09/04 07:08:41;;;;;;;;;;;16.90;94.00;;;;;;5070094;28;19920;-48
2022/09/04 07:11:15;;;;;;;;;;;16.90;94.00;;;;;;5070220;28;19934;-48
2022/09/04 07:13:59;;;;;;;;;;;17.10;94.20;;;;;;5070260;28;19928;-48
2022/09/04 07:16:29;;;;;;;;;;;17.20;94.30;;;;;;5069647;28;20007;-48
2022/09/04 07:18:55;;;;;;;;;;;17.30;94.30;;;;;;5067184;28;19925;-49
2022/09/04 07:21:40;;;;;;;;;;;17.40;94.40;;;;;;5068670;28;20390;-48
2022/09/04 07:24:10;;;;;;;;;;;17.50;94.30;;;;;;5067958;28;19951;-46
2022/09/04 07:26:36;;;;;;;;;;;17.60;94.30;;;;;;5070073;28;20386;-49
2022/09/04 07:29:08;;;;;;;;;;;17.70;94.30;;;;;;5070130;28;19920;-45
2022/09/04 07:31:37;;;;;;;;;;;17.70;94.20;;;;;;5069888;28;19939;-50
2022/09/04 07:34:22;;;;;;;;;;;17.70;94.30;;;;;;5069672;28;20622;-47
2022/09/04 07:37:04;;;;;;;;;;;17.80;94.50;;;;;;5069964;28;20074;-47
2022/09/04 07:39:38;;;;;;;;;;;17.90;94.90;;;;;;5069823;28;19917;-46
2022/09/04 07:42:04;;;;;;;;;;;18.10;94.50;;;;;;5069783;28;19917;-50
2022/09/04 07:44:53;;;;;;;;;;;18.10;94.60;;;;;;5069656;28;19916;-48
2022/09/04 07:47:18;;;;;;;;;;;18.20;94.80;;;;;;5069639;28;20015;-49
2022/09/04 07:50:17;;;;;;;;;;;18.30;94.80;;;;;;5069154;28;20016;-49
2022/09/04 07:52:42;;;;;;;;;;;18.40;95.00;;;;;;5046440;28;20315;-47
2022/09/04 07:55:14;;;;;;;;;;;18.40;95.00;;;;;;5068884;28;19932;-49
2022/09/04 07:57:49;;;;;;;;;;;18.50;94.90;;;;;;5069249;28;19917;-50
2022/09/04 08:00:21;;;;;;;;;;;18.70;95.40;;;;;;5069344;28;20334;-47
2022/09/04 08:02:50;;;;;;;;;;;18.80;95.20;;;;;;5069762;28;20415;-49
2022/09/04 08:05:19;;;;;;;;;;;18.90;95.10;;;;;;5069430;28;20382;-51
2022/09/04 08:08:02;;;;;;;;;;;19.00;95.60;;;;;;5069537;28;20347;-46
2022/09/04 08:10:41;;;;;;;;;;;19.10;95.50;;;;;;5069504;28;19923;-46
2022/09/04 08:13:11;;;;;;;;;;;19.30;95.30;;;;;;5072473;28;20413;-48
2022/09/04 08:15:48;;;;;;;;;;;19.40;95.30;;;;;;5073086;28;20266;-48
2022/09/04 08:18:28;;;;;;;;;;;19.50;95.40;;;;;;5073415;28;19916;-48
2022/09/04 08:20:57;;;;;;;;;;;19.60;95.50;;;;;;5073469;28;19923;-49
2022/09/04 08:23:41;;;;;;;;;;;19.70;95.70;;;;;;5073224;28;19921;-48
2022/09/04 08:26:26;;;;;;;;;;;19.90;95.80;;;;;;5072751;28;19916;-49
2022/09/04 08:29:10;;;;;;;;;;;20.00;95.20;;;;;;5072922;28;19920;-49
2022/09/04 08:31:39;;;;;;;;;;;20.00;95.50;;;;;;5071792;28;19920;-47
2022/09/04 08:34:06;;;;;;;;;;;20.10;95.40;;;;;;5073130;28;20435;-50
2022/09/04 08:36:44;;;;;;;;;;;20.30;95.20;;;;;;5072792;28;20390;-49
2022/09/04 08:39:11;;;;;;;;;;;20.40;95.50;;;;;;5072953;28;19979;-46
2022/09/04 08:41:44;;;;;;;;;;;20.50;95.20;;;;;;5071474;28;19924;-51
2022/09/04 08:44:37;;;;;;;;;;;20.60;95.60;;;;;;5071191;28;19974;-51
2022/09/04 08:47:03;;;;;;;;;;;20.80;95.20;;;;;;5072726;28;19948;-48
2022/09/04 08:49:52;;;;;;;;;;;20.80;95.10;;;;;;5072632;28;19963;-49
2022/09/04 08:52:37;;;;;;;;;;;20.90;94.90;;;;;;5073021;28;19966;-48
2022/09/04 08:55:21;;;;;;;;;;;21.00;95.10;;;;;;5071975;28;19920;-47
2022/09/04 08:58:06;;;;;;;;;;;21.20;95.20;;;;;;5072598;28;19924;-48
2022/09/04 09:00:50;;;;;;;;;;;21.30;94.70;;;;;;5072137;28;19947;-49
2022/09/04 09:03:18;;;;;;;;;;;21.50;94.90;;;;;;5072719;28;19916;-47
2022/09/04 09:06:05;;;;;;;;;;;21.70;94.30;;;;;;5071887;28;19961;-52
2022/09/04 09:08:31;;;;;;;;;;;21.90;94.50;;;;;;5072244;28;19917;-47
2022/09/04 09:11:00;;;;;;;;;;;22.10;94.50;;;;;;5072639;28;19920;-51
2022/09/04 09:13:45;;;;;;;;;;;22.20;94.00;;;;;;5072374;28;19916;-48
2022/09/04 09:16:29;;;;;;;;;;;22.10;94.10;;;;;;5071772;28;19920;-46
2022/09/04 09:19:13;;;;;;;;;;;22.60;94.20;;;;;;5070441;28;19923;-46
2022/09/04 09:21:51;;;;;;;;;;;22.60;93.60;;;;;;5072616;28;19927;-47
2022/09/04 09:24:29;;;;;;;;;;;22.70;93.80;;;;;;5071388;28;19916;-52
2022/09/04 09:27:13;;;;;;;;;;;22.80;93.50;;;;;;5071716;28;19925;-48
2022/09/04 09:29:47;;;;;;;;;;;23.00;93.20;;;;;;5071704;28;19924;-50
2022/09/04 09:32:23;;;;;;;;;;;23.10;93.00;;;;;;5072197;28;20006;-49
2022/09/04 09:34:52;;;;;;;;;;;23.40;93.30;;;;;;5071831;28;19924;-46
2022/09/04 09:37:37;;;;;;;;;;;23.30;93.00;;;;;;5071641;28;19924;-49
2022/09/04 09:40:18;;;;;;;;;;;23.50;92.70;;;;;;5071903;28;20333;-49
2022/09/04 09:42:43;;;;;;;;;;;23.60;92.70;;;;;;5071921;28;20340;-51
2022/09/04 09:45:35;;;;;;;;;;;23.70;92.30;;;;;;5071366;28;20007;-51
2022/09/04 09:48:25;;;;;;;;;;;23.70;93.00;;;;;;5054838;28;19916;-46
2022/09/04 09:51:00;;;;;;;;;;;23.90;92.80;;;;;;5071284;28;19923;-49
2022/09/04 09:53:44;;;;;;;;;;;24.00;92.50;;;;;;5071436;28;19923;-47
2022/09/04 09:56:09;;;;;;;;;;;24.00;92.20;;;;;;5070835;28;20363;-48
2022/09/04 09:58:35;;;;;;;;;;;24.20;92.20;;;;;;5071241;28;19916;-48
2022/09/04 10:01:03;;;;;;;;;;;24.30;92.00;;;;;;5071318;28;19920;-50
2022/09/04 10:03:38;;;;;;;;;;;24.40;91.90;;;;;;5071136;28;19999;-48
2022/09/04 10:06:25;;;;;;;;;;;24.50;91.70;;;;;;5070786;28;19935;-46
2022/09/04 10:09:10;;;;;;;;;;;24.50;91.80;;;;;;5071577;28;19920;-48
2022/09/04 10:11:38;;;;;;;;;;;24.60;92.30;;;;;;5071261;28;19965;-46
2022/09/04 10:14:06;;;;;;;;;;;24.70;92.00;;;;;;5071139;28;19966;-47
2022/09/04 10:16:38;;;;;;;;;;;24.70;92.00;;;;;;5069270;28;19962;-46
2022/09/04 10:19:22;;;;;;;;;;;24.60;91.90;;;;;;5069883;28;19927;-49
2022/09/04 10:22:07;;;;;;;;;;;24.70;91.60;;;;;;5071002;28;19962;-48
2022/09/04 10:24:36;;;;;;;;;;;24.70;91.80;;;;;;5070853;28;20314;-48
2022/09/04 10:27:04;;;;;;;;;;;24.90;92.20;;;;;;5070640;28;19963;-49
2022/09/04 10:29:32;;;;;;;;;;;24.80;91.50;;;;;;5070720;28;19923;-47
2022/09/04 10:32:17;;;;;;;;;;;24.90;91.80;;;;;;5069520;28;19969;-50
2022/09/04 10:34:54;;;;;;;;;;;25.00;92.00;;;;;;5070214;28;20385;-47
2022/09/04 10:37:27;;;;;;;;;;;25.10;91.40;;;;;;5068992;28;19955;-50
2022/09/04 10:43:02;;;;;;;;;;;25.30;91.30;;;;;;5070036;28;19923;-49
2022/09/04 10:45:37;;;;;;;;;;;25.30;91.00;;;;;;5070614;28;20370;-49
2022/09/04 10:48:03;;;;;;;;;;;25.40;91.40;;;;;;5070206;28;19924;-50
2022/09/04 10:50:31;;;;;;;;;;;25.60;91.00;;;;;;5070032;28;19924;-47
2022/09/04 10:53:06;;;;;;;;;;;25.70;91.00;;;;;;5070355;28;20322;-45
2022/09/04 10:55:42;;;;;;;;;;;25.60;90.70;;;;;;5069008;28;19936;-46
2022/09/04 10:58:21;;;;;;;;;;;25.70;91.30;;;;;;5070114;28;19920;-49
2022/09/04 11:01:02;;;;;;;;;;;25.80;90.50;;;;;;5070395;28;19920;-46
2022/09/04 11:03:37;;;;;;;;;;;26.00;90.90;;;;;;5070257;28;19965;-47
2022/09/04 11:06:25;;;;;;;;;;;26.30;90.70;;;;;;5070581;28;19928;-49
2022/09/04 11:09:09;;;;;;;;;;;26.60;90.30;;;;;;5070080;28;19924;-46
2022/09/04 11:11:34;;;;;;;;;;;26.70;90.00;;;;;;5070102;28;19962;-50
2022/09/04 11:14:06;;;;;;;;;;;26.50;89.40;;;;;;5070092;28;19963;-49
2022/09/04 11:16:41;;;;;;;;;;;26.60;89.60;;;;;;5069983;28;19917;-49
2022/09/04 11:19:27;;;;;;;;;;;26.50;89.10;;;;;;5069977;28;19917;-52
2022/09/04 11:22:11;;;;;;;;;;;26.70;89.70;;;;;;5068470;28;19920;-48
2022/09/04 11:24:46;;;;;;;;;;;26.70;88.60;;;;;;5068420;28;19916;-47
2022/09/04 11:27:30;;;;;;;;;;;26.60;88.60;;;;;;5068570;28;19920;-52
2022/09/04 11:30:10;;;;;;;;;;;26.70;88.30;;;;;;5069573;28;19921;-51
2022/09/04 11:32:54;;;;;;;;;;;26.80;88.70;;;;;;5068451;28;19951;-47
2022/09/04 11:35:28;;;;;;;;;;;26.80;88.20;;;;;;5069513;28;19921;-50
2022/09/04 11:37:56;;;;;;;;;;;27.00;88.80;;;;;;5069730;28;20296;-49
2022/09/04 11:40:22;;;;;;;;;;;27.00;88.40;;;;;;5069333;28;19924;-48
2022/09/04 11:43:07;;;;;;;;;;;27.00;87.40;;;;;;5068749;28;20329;-47
2022/09/04 11:45:33;;;;;;;;;;;27.10;87.20;;;;;;5069493;28;19923;-49
2022/09/04 11:47:58;;;;;;;;;;;27.40;86.70;;;;;;5072192;28;20011;-50
2022/09/04 11:50:30;;;;;;;;;;;27.40;86.00;;;;;;5073899;28;20320;-49
2022/09/04 11:53:22;;;;;;;;;;;27.50;86.90;;;;;;5073742;28;19999;-49
2022/09/04 11:55:57;;;;;;;;;;;27.50;85.80;;;;;;5073100;28;19930;-47
2022/09/04 11:58:46;;;;;;;;;;;27.80;86.90;;;;;;5073445;28;20019;-47
2022/09/04 12:01:28;;;;;;;;;;;27.90;84.60;;;;;;5073639;28;20374;-46
2022/09/04 12:04:03;;;;;;;;;;;27.80;85.10;;;;;;5073753;28;19916;-51
2022/09/04 12:06:41;;;;;;;;;;;28.00;85.00;;;;;;5073309;28;19973;-50
2022/09/04 12:09:06;;;;;;;;;;;27.90;83.50;;;;;;5073100;28;19943;-49
2022/09/04 12:11:44;;;;;;;;;;;27.90;84.60;;;;;;5073505;28;20291;-50
2022/09/04 12:14:16;;;;;;;;;;;28.10;83.30;;;;;;5073433;28;19924;-51
2022/09/04 12:16:48;;;;;;;;;;;27.90;83.10;;;;;;5073126;28;19923;-51
2022/09/04 12:19:18;;;;;;;;;;;28.00;82.90;;;;;;5073376;28;19963;-48
2022/09/04 12:22:04;;;;;;;;;;;28.10;84.20;;;;;;5073391;28;19916;-49
2022/09/04 12:24:29;;;;;;;;;;;28.50;83.90;;;;;;5072362;28;21025;-48
2022/09/04 12:27:07;;;;;;;;;;;28.50;81.50;;;;;;5072793;28;19916;-48
2022/09/04 12:29:39;;;;;;;;;;;28.70;82.30;;;;;;5073259;28;20058;-49
2022/09/04 12:32:11;;;;;;;;;;;28.90;82.60;;;;;;5072991;28;19921;-50
2022/09/04 12:34:37;;;;;;;;;;;28.90;82.00;;;;;;5073107;28;19924;-48
2022/09/04 12:37:20;;;;;;;;;;;29.30;82.10;;;;;;5072862;28;19939;-48
2022/09/04 12:40:09;;;;;;;;;;;29.30;82.00;;;;;;5072834;28;19924;-48
2022/09/04 12:42:40;;;;;;;;;;;29.60;80.40;;;;;;5066781;28;20004;-51
2022/09/04 12:45:09;;;;;;;;;;;30.00;79.60;;;;;;5072785;28;19916;-50
2022/09/04 12:47:35;;;;;;;;;;;30.20;79.00;;;;;;5072766;28;19927;-51
2022/09/04 12:50:10;;;;;;;;;;;29.90;79.40;;;;;;5072238;28;19924;-48
2022/09/04 12:52:54;;;;;;;;;;;29.90;79.00;;;;;;5073213;28;20416;-52
2022/09/04 12:55:30;;;;;;;;;;;29.70;79.50;;;;;;5071833;28;19932;-51
2022/09/04 12:58:14;;;;;;;;;;;29.20;79.10;;;;;;5071592;28;19961;-50
2022/09/04 13:01:00;;;;;;;;;;;29.20;79.10;;;;;;5072580;28;19960;-53
2022/09/04 13:03:26;;;;;;;;;;;29.40;79.30;;;;;;5064648;28;20371;-51
2022/09/04 13:05:51;;;;;;;;;;;29.20;79.60;;;;;;5072239;28;19982;-50
2022/09/04 13:08:32;;;;;;;;;;;28.90;79.50;;;;;;5072253;28;19916;-50
2022/09/04 13:10:59;;;;;;;;;;;28.60;80.00;;;;;;5072693;28;20370;-50
2022/09/04 13:13:42;;;;;;;;;;;28.50;80.90;;;;;;5072047;28;19916;-49
2022/09/04 13:16:12;;;;;;;;;;;28.50;81.00;;;;;;5071814;28;19920;-52
2022/09/04 13:18:59;;;;;;;;;;;28.80;81.50;;;;;;5072526;28;19970;-49
2022/09/04 13:21:43;;;;;;;;;;;29.30;81.40;;;;;;5072244;28;20003;-48
2022/09/04 13:24:18;;;;;;;;;;;29.20;79.70;;;;;;5071506;28;20136;-48
2022/09/04 13:27:03;;;;;;;;;;;29.10;79.30;;;;;;5071512;28;19924;-50
2022/09/04 13:29:34;;;;;;;;;;;29.10;79.70;;;;;;5070660;28;19985;-50
2022/09/04 13:32:00;;;;;;;;;;;29.40;79.00;;;;;;5072129;28;20375;-48
2022/09/04 13:34:27;;;;;;;;;;;29.20;79.50;;;;;;5071448;28;19971;-51
2022/09/04 13:37:03;;;;;;;;;;;29.40;78.60;;;;;;5071771;28;19920;-48
2022/09/04 13:39:28;;;;;;;;;;;29.60;77.80;;;;;;5071723;28;20348;-52
2022/09/04 13:42:12;;;;;;;;;;;29.70;78.20;;;;;;5071671;28;19931;-50
2022/09/04 13:45:10;;;;;;;;;;;29.80;78.20;;;;;;5071849;28;20371;-48
2022/09/04 13:47:56;;;;;;;;;;;30.00;78.40;;;;;;5048200;28;19920;-49
2022/09/04 13:50:28;;;;;;;;;;;30.10;78.80;;;;;;5071117;28;19928;-49
2022/09/04 13:52:54;;;;;;;;;;;29.90;78.30;;;;;;5071672;28;19925;-50
2022/09/04 13:55:25;;;;;;;;;;;29.20;79.50;;;;;;5070927;28;19924;-50
2022/09/04 13:57:54;;;;;;;;;;;29.20;79.40;;;;;;5069851;28;19920;-49
2022/09/04 14:00:21;;;;;;;;;;;29.00;79.20;;;;;;5071393;28;20314;-51
2022/09/04 14:02:49;;;;;;;;;;;28.80;78.90;;;;;;5071409;28;19964;-46
2022/09/04 14:05:19;;;;;;;;;;;28.70;80.00;;;;;;5071400;28;20346;-50
2022/09/04 14:07:48;;;;;;;;;;;28.60;80.40;;;;;;5052909;28;19920;-49
2022/09/04 14:10:16;;;;;;;;;;;28.50;79.80;;;;;;5068463;28;19925;-51
2022/09/04 14:13:02;;;;;;;;;;;28.50;80.10;;;;;;5071385;28;19920;-51
2022/09/04 14:15:31;;;;;;;;;;;28.30;80.60;;;;;;5070332;28;19971;-47
2022/09/04 14:17:57;;;;;;;;;;;28.10;80.30;;;;;;5070692;28;19927;-50
2022/09/04 14:20:25;;;;;;;;;;;27.90;81.70;;;;;;5071329;28;19917;-52
2022/09/04 14:22:54;;;;;;;;;;;27.90;82.80;;;;;;5070571;28;19923;-46
2022/09/04 14:25:24;;;;;;;;;;;28.00;80.50;;;;;;5069088;28;19931;-51
2022/09/04 14:27:58;;;;;;;;;;;28.00;81.00;;;;;;5069440;28;19920;-47
2022/09/04 14:30:24;;;;;;;;;;;28.00;81.00;;;;;;5071130;28;19927;-48
2022/09/04 14:33:08;;;;;;;;;;;27.90;83.20;;;;;;5070931;28;19924;-49
2022/09/04 14:35:45;;;;;;;;;;;27.90;81.50;;;;;;5070644;28;19935;-47
2022/09/04 14:38:23;;;;;;;;;;;27.80;81.70;;;;;;5070869;28;19917;-50
2022/09/04 14:40:55;;;;;;;;;;;27.80;83.00;;;;;;5070872;28;19928;-49
2022/09/04 14:43:36;;;;;;;;;;;27.90;81.90;;;;;;5070804;28;19971;-49
2022/09/04 14:46:19;;;;;;;;;;;28.00;81.50;;;;;;5070641;28;19923;-51
2022/09/04 14:48:47;;;;;;;;;;;28.30;81.20;;;;;;5070036;28;19924;-47
2022/09/04 14:51:16;;;;;;;;;;;28.60;82.20;;;;;;5070547;28;19923;-49
2022/09/04 14:53:46;;;;;;;;;;;28.80;80.90;;;;;;5070369;28;19971;-47
2022/09/04 14:56:11;;;;;;;;;;;28.90;81.10;;;;;;5068180;28;19958;-51
2022/09/04 14:58:43;;;;;;;;;;;29.10;80.40;;;;;;5070068;28;19916;-50
2022/09/04 15:01:22;;;;;;;;;;;29.40;80.00;;;;;;5070293;28;19982;-48
2022/09/04 15:03:58;;;;;;;;;;;29.70;78.80;;;;;;5070038;28;19923;-50
2022/09/04 15:06:30;;;;;;;;;;;29.80;77.60;;;;;;5069796;28;19973;-48